Time;durP1;ratioP1;P1;durP2;ratioP2;P2;SDS_P1;SDS_P2;PMS_P1;PMS_P2;Temp;Humidity;BMP_temperature;BMP_pressure;BME280_temperature;BME280_humidity;BME280_pressure;Samples;Min_cycle;Max_cycle;Signal;HPM_P1;HPM_P2
2021/12/14 00:00:18;;;;;;;15.60;11.32;;;;;;;6.50;100.00;102523.44;5023564;28;20049;-80
2021/12/14 00:02:45;;;;;;;12.43;10.43;;;;;;;6.47;100.00;102526.09;5026537;28;20120;-81
2021/12/14 00:05:12;;;;;;;14.02;10.48;;;;;;;6.54;100.00;102543.72;5040983;28;20040;-81
2021/12/14 00:07:38;;;;;;;13.20;10.18;;;;;;;6.47;100.00;102532.28;5088504;28;20379;-81
2021/12/14 00:10:29;;;;;;;13.85;10.00;;;;;;;6.55;100.00;102534.00;5086608;28;20680;-80
2021/12/14 00:13:02;;;;;;;14.57;10.70;;;;;;;6.55;100.00;102526.06;5075050;28;20081;-81
2021/12/14 00:15:28;;;;;;;13.90;10.80;;;;;;;6.54;100.00;102526.97;5086039;28;20036;-80
2021/12/14 00:17:58;;;;;;;16.20;10.95;;;;;;;6.52;100.00;102532.28;5087830;28;20012;-81
2021/12/14 00:20:27;;;;;;;15.68;11.20;;;;;;;6.52;100.00;102526.97;5066829;28;20429;-80
2021/12/14 00:25:22;;;;;;;18.95;11.93;;;;;;;6.46;100.00;102516.44;5067009;28;20025;-80
2021/12/14 00:27:47;;;;;;;16.25;11.88;;;;;;;6.47;100.00;102516.41;5068133;28;20192;-81
2021/12/14 00:30:13;;;;;;;15.90;11.27;;;;;;;6.46;100.00;102522.59;5077741;28;20507;-80
2021/12/14 00:32:39;;;;;;;15.27;11.63;;;;;;;6.49;100.00;102529.63;5075153;28;20028;-81
2021/12/14 00:35:12;;;;;;;16.35;11.35;;;;;;;6.49;100.00;102521.69;5068193;28;20171;-82
2021/12/14 00:37:42;;;;;;;16.45;12.02;;;;;;;6.49;100.00;102533.16;5075895;28;20618;-81
2021/12/14 00:40:14;;;;;;;17.48;11.82;;;;;;;6.50;100.00;102536.69;5065390;28;20128;-82
2021/12/14 00:42:39;;;;;;;17.73;12.60;;;;;;;6.48;100.00;102534.06;5049528;28;20131;-82
2021/12/14 00:45:05;;;;;;;17.73;12.70;;;;;;;6.48;100.00;102534.06;5064121;28;20540;-81
2021/12/14 00:47:30;;;;;;;18.95;13.45;;;;;;;6.45;100.00;102523.50;5073002;28;20477;-81
2021/12/14 00:49:56;;;;;;;18.95;12.50;;;;;;;6.46;100.00;102533.16;5067491;28;20111;-81
2021/12/14 00:52:22;;;;;;;18.92;12.98;;;;;;;6.48;100.00;102552.56;5067643;28;20158;-82
2021/12/14 00:54:48;;;;;;;17.52;11.90;;;;;;;6.42;100.00;102555.25;5068036;28;20426;-82
2021/12/14 00:57:14;;;;;;;18.92;12.90;;;;;;;6.47;100.00;102553.44;5067209;28;20483;-81
2021/12/14 00:59:39;;;;;;;20.02;13.55;;;;;;;6.43;100.00;102556.13;5067755;28;20505;-81
2021/12/14 01:02:09;;;;;;;22.10;13.90;;;;;;;6.45;100.00;102568.47;5080712;28;20032;-81
2021/12/14 01:04:45;;;;;;;23.02;13.90;;;;;;;6.46;100.00;102578.13;5073127;28;20032;-81
2021/12/14 01:07:14;;;;;;;22.05;15.38;;;;;;;6.45;100.00;102565.81;5067105;28;20032;-82
2021/12/14 01:09:44;;;;;;;23.20;15.43;;;;;;;6.46;100.00;102575.50;5067760;28;20512;-81
2021/12/14 01:12:19;;;;;;;22.73;15.57;;;;;;;6.45;100.00;102571.09;5078762;28;20021;-81
2021/12/14 01:15:10;;;;;;;26.67;16.70;;;;;;;6.45;100.00;102557.00;5079620;28;20028;-81
2021/12/14 01:17:54;;;;;;;26.13;16.08;;;;;;;6.44;100.00;102544.66;5071436;28;20036;-82
2021/12/14 01:20:21;;;;;;;24.38;15.50;;;;;;;6.44;100.00;102549.97;5072238;28;20036;-81
2021/12/14 01:22:53;;;;;;;21.77;15.27;;;;;;;6.44;100.00;102548.19;5086886;28;20059;-82
2021/12/14 01:25:26;;;;;;;25.63;15.93;;;;;;;6.43;100.00;102546.41;5086822;28;20063;-82
2021/12/14 01:27:51;;;;;;;24.05;15.68;;;;;;;6.43;100.00;102556.97;5080996;28;20056;-82
2021/12/14 01:30:32;;;;;;;24.80;15.55;;;;;;;6.44;100.00;102549.97;5067324;28;20060;-81
2021/12/14 01:33:02;;;;;;;22.05;15.23;;;;;;;6.44;100.00;102545.53;5067491;28;20045;-82
2021/12/14 01:35:32;;;;;;;21.15;15.95;;;;;;;6.43;100.00;102535.81;5047414;28;20472;-81
2021/12/14 01:38:17;;;;;;;22.27;15.82;;;;;;;6.41;100.00;102523.53;5065101;28;20077;-82
2021/12/14 01:40:53;;;;;;;20.40;14.93;;;;;;;6.42;100.00;102531.44;5065166;28;20535;-80
2021/12/14 01:43:29;;;;;;;20.58;13.80;;;;;;;6.41;100.00;102539.41;5066879;28;20500;-80
2021/12/14 01:45:56;;;;;;;22.25;14.10;;;;;;;6.39;100.00;102542.03;5067420;28;20020;-80
2021/12/14 01:48:23;;;;;;;19.17;13.68;;;;;;;6.39;100.00;102518.22;5070944;28;20036;-80
2021/12/14 01:50:54;;;;;;;18.80;12.63;;;;;;;6.38;100.00;102523.53;5067283;28;20025;-80
2021/12/14 01:53:23;;;;;;;18.20;12.20;;;;;;;6.40;100.00;102530.59;5066040;28;20031;-80
2021/12/14 01:55:53;;;;;;;17.27;11.85;;;;;;;6.37;100.00;102530.59;5048962;28;20032;-80
2021/12/14 01:58:22;;;;;;;15.55;11.45;;;;;;;6.38;100.00;102534.13;5068303;28;20032;-80
2021/12/14 02:01:01;;;;;;;18.58;11.48;;;;;;;6.36;100.00;102522.69;5066114;28;20040;-80
2021/12/14 02:03:36;;;;;;;16.52;11.25;;;;;;;6.36;100.00;102531.50;5068038;28;20070;-80
2021/12/14 02:06:04;;;;;;;18.20;10.60;;;;;;;6.33;100.00;102506.81;5066974;28;20031;-80
2021/12/14 02:08:38;;;;;;;15.20;10.32;;;;;;;6.35;100.00;102502.38;5067715;28;20029;-80
2021/12/14 02:11:06;;;;;;;17.33;10.45;;;;;;;6.32;100.00;102507.72;5048155;28;20508;-80
2021/12/14 02:13:43;;;;;;;16.45;10.45;;;;;;;6.32;100.00;102520.94;5073669;28;20167;-80
2021/12/14 02:16:10;;;;;;;17.60;10.73;;;;;;;6.31;100.00;102504.19;5076343;28;20024;-81
2021/12/14 02:18:36;;;;;;;16.15;10.40;;;;;;;6.30;100.00;102486.56;5075732;28;20012;-81
2021/12/14 02:21:09;;;;;;;16.73;10.63;;;;;;;6.31;100.00;102493.63;5069204;28;20036;-80
2021/12/14 02:23:38;;;;;;;15.98;10.80;;;;;;;6.28;100.00;102493.63;5084162;28;20492;-81
2021/12/14 02:26:08;;;;;;;14.48;10.15;;;;;;;6.32;100.00;102495.38;5090205;28;20396;-81
2021/12/14 02:28:34;;;;;;;18.27;10.35;;;;;;;6.27;100.00;102504.19;5078110;28;20028;-80
2021/12/14 02:31:03;;;;;;;15.52;10.68;;;;;;;6.24;100.00;102486.63;5068811;28;20040;-81
2021/12/14 02:33:33;;;;;;;16.85;10.98;;;;;;;6.19;100.00;102484.00;5070371;28;20032;-80
2021/12/14 02:36:01;;;;;;;16.30;11.20;;;;;;;6.25;100.00;102493.66;5069811;28;20032;-81
2021/12/14 02:38:27;;;;;;;17.38;10.40;;;;;;;6.22;100.00;102483.97;5077348;28;20030;-81
2021/12/14 02:41:01;;;;;;;15.90;10.95;;;;;;;6.20;100.00;102480.47;5051832;28;20037;-81
2021/12/14 02:43:32;;;;;;;14.93;10.15;;;;;;;6.22;100.00;102488.38;5073000;28;20359;-81
2021/12/14 02:46:03;;;;;;;18.42;10.85;;;;;;;6.22;100.00;102485.72;5073405;28;20028;-81
2021/12/14 02:48:28;;;;;;;15.68;10.75;;;;;;;6.20;100.00;102504.25;5072663;28;20032;-81
2021/12/14 02:50:54;;;;;;;16.75;10.05;;;;;;;6.18;100.00;102494.56;5069213;28;20035;-80
2021/12/14 02:53:19;;;;;;;16.02;11.30;;;;;;;6.20;100.00;102506.03;5080838;28;20106;-80
2021/12/14 02:55:45;;;;;;;13.95;10.43;;;;;;;6.18;100.00;102499.84;5084387;28;20016;-80
2021/12/14 02:58:10;;;;;;;15.20;11.02;;;;;;;6.16;100.00;102496.34;5068348;28;20052;-81
2021/12/14 03:00:46;;;;;;;15.35;10.68;;;;;;;6.19;100.00;102512.22;5069508;28;20108;-80
2021/12/14 03:03:12;;;;;;;15.32;10.40;;;;;;;6.18;100.00;102502.50;5069141;28;20033;-81
2021/12/14 03:05:41;;;;;;;16.75;11.05;;;;;;;6.16;100.00;102485.78;5068379;28;20123;-80
2021/12/14 03:08:14;;;;;;;17.25;10.77;;;;;;;6.21;100.00;102494.56;5070061;28;20051;-81
2021/12/14 03:10:58;;;;;;;16.05;10.73;;;;;;;6.20;100.00;102487.53;5068894;28;20066;-81
2021/12/14 03:13:27;;;;;;;14.50;9.88;;;;;;;6.19;100.00;102475.19;5067493;28;20115;-80
2021/12/14 03:15:55;;;;;;;16.15;10.68;;;;;;;6.17;100.00;102479.59;5081215;28;20081;-80
2021/12/14 03:18:25;;;;;;;16.30;9.48;;;;;;;6.14;100.00;102479.59;5072628;28;20035;-81
2021/12/14 03:21:16;;;;;;;15.85;9.63;;;;;;;6.13;100.00;102475.22;5067456;28;20028;-80
2021/12/14 03:23:46;;;;;;;15.75;9.68;;;;;;;6.14;100.00;102477.84;5065548;28;20127;-80
2021/12/14 03:26:15;;;;;;;16.23;9.80;;;;;;;6.15;100.00;102469.03;5068289;28;20558;-80
2021/12/14 03:28:45;;;;;;;13.77;9.05;;;;;;;6.13;100.00;102470.81;5067480;28;20032;-80
2021/12/14 03:31:10;;;;;;;14.55;9.10;;;;;;;6.13;100.00;102465.50;5068033;28;20032;-80
2021/12/14 03:33:42;;;;;;;13.27;9.83;;;;;;;6.13;100.00;102464.63;5068591;28;20028;-80
2021/12/14 03:36:15;;;;;;;14.60;9.23;;;;;;;6.14;100.00;102458.47;5068421;28;20279;-80
2021/12/14 03:38:53;;;;;;;14.98;9.10;;;;;;;6.13;100.00;102457.59;5060242;28;20119;-81
2021/12/14 03:41:26;;;;;;;15.20;9.57;;;;;;;6.12;100.00;102460.25;5048620;28;20116;-80
2021/12/14 03:44:00;;;;;;;15.23;9.50;;;;;;;6.12;100.00;102460.25;5063094;28;20039;-80
2021/12/14 03:46:32;;;;;;;14.70;8.85;;;;;;;6.13;100.00;102462.00;5055776;28;20032;-81
2021/12/14 03:48:58;;;;;;;15.35;10.15;;;;;;;6.08;100.00;102447.94;5066486;28;20038;-81
2021/12/14 03:51:24;;;;;;;15.80;10.18;;;;;;;6.09;100.00;102453.22;5068341;28;20070;-80
2021/12/14 03:53:52;;;;;;;15.63;9.93;;;;;;;6.10;100.00;102465.53;5068772;28;20028;-81
2021/12/14 03:56:17;;;;;;;18.00;10.40;;;;;;;6.10;100.00;102467.28;5066543;28;20036;-81
2021/12/14 03:58:44;;;;;;;16.75;10.80;;;;;;;6.09;100.00;102477.00;5067489;28;20108;-81
2021/12/14 04:01:13;;;;;;;16.42;10.13;;;;;;;6.10;100.00;102483.16;5067844;28;20040;-81
2021/12/14 04:03:41;;;;;;;19.00;10.25;;;;;;;6.10;100.00;102506.94;5068342;28;20056;-81
2021/12/14 04:06:07;;;;;;;17.55;11.10;;;;;;;6.10;100.00;102509.59;5067883;28;20032;-81
2021/12/14 04:08:33;;;;;;;17.20;10.82;;;;;;;6.05;100.00;102506.09;5067049;28;20021;-81
2021/12/14 04:11:00;;;;;;;18.20;10.02;;;;;;;6.10;100.00;102518.41;5068339;28;20035;-81
2021/12/14 04:13:30;;;;;;;17.77;11.23;;;;;;;6.09;100.00;102515.78;5064837;28;20020;-81
2021/12/14 04:15:56;;;;;;;16.10;9.90;;;;;;;6.12;100.00;102524.56;5065569;28;20024;-81
2021/12/14 04:18:21;;;;;;;16.63;9.98;;;;;;;6.10;100.00;102523.69;5047765;28;20039;-81
2021/12/14 04:20:50;;;;;;;18.58;10.77;;;;;;;6.11;100.00;102522.81;5051778;28;20394;-80
2021/12/14 04:23:22;;;;;;;18.42;10.85;;;;;;;6.12;100.00;102510.47;5067725;28;20025;-80
2021/12/14 04:25:50;;;;;;;22.58;11.13;;;;;;;6.12;100.00;102505.19;5083392;28;20424;-80
2021/12/14 04:28:19;;;;;;;19.55;11.52;;;;;;;6.12;100.00;102507.84;5065794;28;20028;-80
2021/12/14 04:30:46;;;;;;;18.88;10.95;;;;;;;6.11;100.00;102511.38;5072973;28;20017;-80
2021/12/14 04:33:15;;;;;;;19.15;10.57;;;;;;;6.10;100.00;102510.47;5066694;28;20032;-80
2021/12/14 04:35:43;;;;;;;19.20;11.25;;;;;;;6.10;100.00;102509.59;5068683;28;20633;-81
2021/12/14 04:38:17;;;;;;;21.80;11.82;;;;;;;6.08;100.00;102499.03;5066382;28;20162;-80
2021/12/14 04:52:05;;;;;;;19.30;10.80;;;;;;;6.04;100.00;102499.94;5011022;28;20084;-81
2021/12/14 04:54:41;;;;;;;20.17;11.57;;;;;;;6.04;100.00;102493.78;5022698;28;20034;-81
2021/12/14 04:57:19;;;;;;;20.85;11.93;;;;;;;6.02;100.00;102484.97;5018267;28;20022;-81
2021/12/14 04:59:45;;;;;;;18.27;11.00;;;;;;;6.06;100.00;102489.34;5004763;28;20224;-81
2021/12/14 05:02:14;;;;;;;21.13;11.90;;;;;;;6.05;100.00;102479.66;5004010;28;20499;-81
2021/12/14 05:04:40;;;;;;;20.85;11.52;;;;;;;6.04;100.00;102478.81;5010105;28;20041;-81
2021/12/14 05:09:50;;;;;;;20.92;11.57;;;;;;;6.03;100.00;102462.97;5005046;28;20048;-81
2021/12/14 05:12:20;;;;;;;21.65;11.73;;;;;;;6.03;100.00;102470.88;5001744;28;20180;-81
2021/12/14 05:14:47;;;;;;;21.38;12.80;;;;;;;5.99;100.00;102455.03;5002381;28;20044;-81
2021/12/14 05:17:18;;;;;;;23.40;12.48;;;;;;;6.01;100.00;102467.38;5005648;28;20034;-81
2021/12/14 05:19:45;;;;;;;23.08;11.77;;;;;;;6.01;100.00;102468.22;5033251;28;20463;-81
2021/12/14 05:22:23;;;;;;;25.50;12.25;;;;;;;5.99;100.00;102470.91;5085770;28;20058;-81
2021/12/14 05:24:56;;;;;;;21.88;11.80;;;;;;;5.96;100.00;102473.56;5077681;28;20510;-81
2021/12/14 05:27:29;;;;;;;21.27;11.82;;;;;;;6.00;100.00;102463.84;5084442;28;20476;-81
2021/12/14 05:30:12;;;;;;;24.00;12.73;;;;;;;5.97;100.00;102475.31;5086977;28;20081;-81
2021/12/14 05:32:39;;;;;;;23.35;13.05;;;;;;;5.99;100.00;102478.81;5078135;28;20086;-81
2021/12/14 05:35:07;;;;;;;20.73;12.63;;;;;;;6.01;100.00;102483.22;5086767;28;20042;-81
2021/12/14 05:37:41;;;;;;;23.33;13.27;;;;;;;6.01;100.00;102486.75;5085488;28;20032;-81
2021/12/14 05:40:16;;;;;;;;;;;;;;;6.03;100.00;102484.97;5081324;28;20060;-81
2021/12/14 05:45:25;;;;;;;22.20;12.27;;;;;;;6.01;100.00;102472.66;5080704;28;20047;-81
2021/12/14 05:47:55;;;;;;;21.70;12.48;;;;;;;5.99;100.00;102477.94;5082596;28;20016;-81
2021/12/14 05:50:26;;;;;;;26.42;14.00;;;;;;;5.96;100.00;102477.97;5090849;28;20897;-81
2021/12/14 05:52:52;;;;;;;24.27;13.25;;;;;;;5.98;100.00;102489.41;5087195;28;20385;-81
2021/12/14 05:55:24;;;;;;;25.00;12.90;;;;;;;5.97;100.00;102487.63;5082624;28;20035;-81
2021/12/14 05:57:51;;;;;;;24.23;12.52;;;;;;;5.96;100.00;102486.75;5087650;28;20028;-81
2021/12/14 06:00:18;;;;;;;26.45;13.82;;;;;;;5.96;100.00;102486.75;5088743;28;20028;-81
2021/12/14 06:02:44;;;;;;;24.52;13.60;;;;;;;5.94;100.00;102488.56;5075748;28;20028;-81
2021/12/14 06:05:12;;;;;;;27.27;14.10;;;;;;;5.97;100.00;102501.72;5081216;28;20149;-81
2021/12/14 06:07:38;;;;;;;25.77;13.65;;;;;;;5.96;100.00;102491.19;5088696;28;20051;-81
2021/12/14 06:10:04;;;;;;;26.52;14.15;;;;;;;5.97;100.00;102495.56;5091004;28;20060;-81
2021/12/14 06:12:32;;;;;;;27.42;14.02;;;;;;;5.96;100.00;102494.69;5081007;28;20120;-81
2021/12/14 06:15:00;;;;;;;27.30;14.98;;;;;;;5.96;100.00;102501.75;5076524;28;20135;-81
2021/12/14 06:17:35;;;;;;;26.13;13.68;;;;;;;5.96;100.00;102499.97;5085491;28;20103;-81
2021/12/14 06:20:11;;;;;;;28.23;13.68;;;;;;;5.96;100.00;102502.63;5089777;28;20036;-81
2021/12/14 06:22:39;;;;;;;29.55;14.45;;;;;;;5.91;100.00;102493.81;5089571;28;20358;-81
2021/12/14 06:25:10;;;;;;;28.08;14.10;;;;;;;5.97;100.00;102506.13;5090245;28;20484;-81
2021/12/14 06:27:36;;;;;;;27.95;14.85;;;;;;;5.96;100.00;102507.03;5084443;28;20542;-81
2021/12/14 06:30:15;;;;;;;30.38;15.30;;;;;;;5.96;100.00;102513.19;5071637;28;20374;-81
2021/12/14 06:32:44;;;;;;;26.48;14.07;;;;;;;5.91;100.00;102500.88;5073247;28;20040;-81
2021/12/14 06:35:19;;;;;;;30.05;14.18;;;;;;;5.96;100.00;102507.03;5085736;28;20038;-81
2021/12/14 06:38:21;;;;;;;29.08;15.57;;;;;;;5.96;100.00;102513.19;5085818;28;20095;-81
2021/12/14 06:40:59;;;;;;;28.60;14.85;;;;;;;5.96;100.00;102513.19;5088121;28;20020;-81
2021/12/14 06:43:34;;;;;;;31.98;15.55;;;;;;;5.95;100.00;102516.72;5086696;28;20513;-82
2021/12/14 06:46:05;;;;;;;29.63;15.23;;;;;;;5.95;100.00;102515.84;5088522;28;20035;-81
2021/12/14 06:48:40;;;;;;;33.53;16.27;;;;;;;5.96;100.00;102529.06;5084965;28;20024;-81
2021/12/14 06:51:13;;;;;;;35.95;16.15;;;;;;;5.97;100.00;102533.44;5084501;28;20493;-81
2021/12/14 06:53:39;;;;;;;33.60;15.95;;;;;;;5.96;100.00;102528.19;5086674;28;20028;-80
2021/12/14 06:56:08;;;;;;;33.65;15.88;;;;;;;5.95;100.00;102524.66;5069677;28;20016;-81
2021/12/14 06:58:38;;;;;;;35.00;16.48;;;;;;;5.96;100.00;102529.06;5086580;28;20052;-80
2021/12/14 07:01:13;;;;;;;32.50;16.00;;;;;;;5.95;100.00;102529.06;5086762;28;20165;-81
2021/12/14 07:03:45;;;;;;;33.75;16.20;;;;;;;5.96;100.00;102538.75;5089874;28;20113;-80
2021/12/14 07:06:22;;;;;;;37.33;17.45;;;;;;;5.96;100.00;102539.63;5086730;28;20085;-80
2021/12/14 07:08:50;;;;;;;30.95;16.13;;;;;;;5.96;100.00;102536.97;5077756;28;20128;-80
2021/12/14 07:11:26;;;;;;;32.72;16.58;;;;;;;5.95;100.00;102537.88;5076413;28;20024;-80
2021/12/14 07:13:53;;;;;;;30.58;16.02;;;;;;;5.96;100.00;102546.69;5078779;28;20030;-79
2021/12/14 07:16:31;;;;;;;36.58;16.95;;;;;;;5.95;100.00;102539.66;5075999;28;20416;-79
2021/12/14 07:19:01;;;;;;;33.72;16.85;;;;;;;5.97;100.00;102540.50;5076007;28;20444;-79
2021/12/14 07:21:38;;;;;;;36.65;16.92;;;;;;;5.96;100.00;102551.97;5077169;28;20060;-79
2021/12/14 07:24:21;;;;;;;34.35;16.13;;;;;;;5.96;100.00;102555.47;5081017;28;20035;-80
2021/12/14 07:26:51;;;;;;;35.50;17.05;;;;;;;5.95;100.00;102556.38;5076658;28;20031;-79
2021/12/14 07:29:23;;;;;;;38.00;17.98;;;;;;;5.93;100.00;102578.41;5077589;28;20032;-79
2021/12/14 07:31:49;;;;;;;38.83;17.80;;;;;;;5.94;100.00;102577.53;5078764;28;20040;-79
2021/12/14 07:34:14;;;;;;;38.25;18.15;;;;;;;5.93;100.00;102581.91;5078925;28;20132;-79
2021/12/14 07:36:40;;;;;;;37.63;16.95;;;;;;;5.89;100.00;102563.41;5081712;28;20016;-79
2021/12/14 07:39:14;;;;;;;38.50;17.90;;;;;;;5.96;100.00;102587.19;5078942;28;20020;-79
2021/12/14 07:41:49;;;;;;;34.97;16.92;;;;;;;5.96;100.00;102581.03;5081521;28;20067;-79
2021/12/14 07:44:16;;;;;;;36.75;17.52;;;;;;;5.95;100.00;102585.44;5082353;28;20345;-79
2021/12/14 07:46:44;;;;;;;36.13;18.00;;;;;;;5.96;100.00;102575.75;5075983;28;20062;-80
2021/12/14 07:49:34;;;;;;;35.85;18.13;;;;;;;5.95;100.00;102574.88;5077146;28;20026;-80
2021/12/14 07:52:16;;;;;;;37.85;16.85;;;;;;;5.98;100.00;102596.03;5080522;28;20027;-80
2021/12/14 07:54:51;;;;;;;43.38;19.15;;;;;;;5.98;100.00;102601.31;5083026;28;20030;-81
2021/12/14 07:57:26;;;;;;;41.42;18.92;;;;;;;5.98;100.00;102603.94;5074389;28;20036;-80
2021/12/14 07:59:54;;;;;;;34.75;16.75;;;;;;;5.99;100.00;102611.00;5082201;28;20469;-80
2021/12/14 08:02:33;;;;;;;38.28;18.00;;;;;;;5.99;100.00;102613.63;5088022;28;20042;-81
2021/12/14 08:05:04;;;;;;;34.00;16.73;;;;;;;5.99;100.00;102624.19;5085621;28;20028;-80
2021/12/14 08:07:35;;;;;;;37.85;18.52;;;;;;;6.01;100.00;102620.66;5083540;28;20385;-81
2021/12/14 08:10:23;;;;;;;38.97;17.95;;;;;;;5.97;100.00;102615.38;5083737;28;20385;-80
2021/12/14 08:13:04;;;;;;;37.55;19.08;;;;;;;6.04;100.00;102624.19;5086651;28;20036;-80
2021/12/14 08:15:53;;;;;;;42.15;19.15;;;;;;;6.05;100.00;102617.13;5085608;28;20039;-80
2021/12/14 08:18:24;;;;;;;40.38;19.05;;;;;;;6.05;100.00;102622.41;5069480;28;20047;-80
2021/12/14 08:21:03;;;;;;;36.45;17.70;;;;;;;6.09;100.00;102621.53;5091793;28;20043;-79
2021/12/14 08:23:41;;;;;;;37.70;18.70;;;;;;;6.09;100.00;102614.47;5081461;28;20035;-80
2021/12/14 08:26:28;;;;;;;36.10;18.42;;;;;;;6.09;100.00;102617.09;5086036;28;20489;-80
2021/12/14 08:28:58;;;;;;;39.05;18.27;;;;;;;6.10;100.00;102618.84;5087755;28;20481;-79
2021/12/14 08:31:31;;;;;;;37.03;18.30;;;;;;;6.11;100.00;102618.00;5086574;28;20039;-80
2021/12/14 08:33:59;;;;;;;40.40;20.23;;;;;;;6.08;100.00;102617.13;5087048;28;20075;-80
2021/12/14 08:36:38;;;;;;;41.63;18.58;;;;;;;6.10;100.00;102613.56;5085422;28;20093;-80
2021/12/14 08:39:26;;;;;;;38.90;18.23;;;;;;;6.10;100.00;102610.06;5077668;28;20028;-79
2021/12/14 08:42:07;;;;;;;39.25;18.08;;;;;;;6.16;100.00;102621.50;5087355;28;20063;-80
2021/12/14 08:44:37;;;;;;;37.00;18.27;;;;;;;6.19;100.00;102617.97;5081004;28;20027;-80
2021/12/14 08:47:11;;;;;;;37.55;18.38;;;;;;;6.20;100.00;102625.00;5077731;28;20426;-80
2021/12/14 08:49:39;;;;;;;36.55;19.13;;;;;;;6.22;100.00;102623.22;5079406;28;20080;-79
2021/12/14 08:52:05;;;;;;;37.05;18.40;;;;;;;6.24;100.00;102632.03;5086974;28;20093;-80
2021/12/14 08:54:33;;;;;;;37.90;18.83;;;;;;;6.26;100.00;102626.72;5085639;28;20513;-80
2021/12/14 08:57:26;;;;;;;39.63;20.63;;;;;;;6.27;100.00;102634.69;5086807;28;20023;-80
2021/12/14 08:59:56;;;;;;;38.42;19.95;;;;;;;6.27;100.00;102621.47;5077761;28;20024;-80
2021/12/14 09:02:24;;;;;;;39.22;18.73;;;;;;;6.31;99.88;102624.94;5074512;28;20390;-80
2021/12/14 09:05:01;;;;;;;39.22;18.98;;;;;;;6.32;99.80;102618.78;5083049;28;20459;-80
2021/12/14 09:07:30;;;;;;;42.72;20.27;;;;;;;6.36;99.74;102632.00;5081972;28;20034;-80
2021/12/14 09:09:57;;;;;;;41.10;19.45;;;;;;;6.39;99.39;102628.44;5077659;28;20063;-80
2021/12/14 09:12:33;;;;;;;36.47;19.00;;;;;;;6.42;99.32;102628.41;5084075;28;20092;-80
2021/12/14 09:15:16;;;;;;;40.22;19.15;;;;;;;6.43;99.58;102638.97;5084597;28;20046;-80
2021/12/14 09:17:42;;;;;;;38.10;18.98;;;;;;;6.41;99.59;102627.56;5076742;28;20032;-80
2021/12/14 09:20:24;;;;;;;37.33;18.65;;;;;;;6.43;99.17;102636.34;5086838;28;20444;-80
2021/12/14 09:22:54;;;;;;;37.38;18.17;;;;;;;6.48;99.32;102637.22;5087251;28;20035;-81
2021/12/14 09:25:26;;;;;;;38.65;18.38;;;;;;;6.52;99.00;102639.81;5089228;28;20026;-81
2021/12/14 09:27:53;;;;;;;43.15;20.65;;;;;;;6.53;98.92;102631.91;5085227;28;20473;-80
2021/12/14 09:30:22;;;;;;;43.55;21.55;;;;;;;6.58;98.97;102645.97;5096871;28;20028;-81
2021/12/14 09:32:48;;;;;;;41.50;20.50;;;;;;;6.66;98.45;102643.28;5087796;28;20111;-81
2021/12/14 09:35:19;;;;;;;41.03;19.67;;;;;;;6.72;98.34;102641.47;5074029;28;20400;-81
2021/12/14 09:37:47;;;;;;;38.40;19.13;;;;;;;6.79;98.15;102644.09;5082566;28;20020;-81
2021/12/14 09:40:20;;;;;;;39.08;18.92;;;;;;;6.85;97.79;102644.03;5084611;28;20052;-82
2021/12/14 09:42:45;;;;;;;39.90;19.47;;;;;;;6.90;97.59;102634.31;5089055;28;20032;-80
2021/12/14 09:45:20;;;;;;;38.63;19.42;;;;;;;6.98;97.01;102632.47;5073466;28;20527;-80
2021/12/14 09:47:48;;;;;;;39.65;18.95;;;;;;;7.04;96.99;102635.09;5088376;28;20493;-80
2021/12/14 09:50:24;;;;;;;42.80;20.38;;;;;;;7.08;96.61;102635.94;5090063;28;20077;-81
2021/12/14 09:52:53;;;;;;;40.25;20.15;;;;;;;7.12;96.44;102640.34;5090497;28;20488;-79
2021/12/14 09:55:23;;;;;;;39.92;19.75;;;;;;;7.16;96.56;102631.47;5089382;28;20325;-80
2021/12/14 09:57:57;;;;;;;41.03;20.27;;;;;;;7.23;96.06;102625.22;5086750;28;20055;-81
2021/12/14 10:00:29;;;;;;;36.97;19.15;;;;;;;7.24;95.75;102619.91;5091142;28;20024;-80
2021/12/14 10:02:56;;;;;;;39.67;20.50;;;;;;;7.21;95.86;102617.28;5078083;28;20402;-80
2021/12/14 10:05:31;;;;;;;37.92;19.38;;;;;;;7.23;95.69;102619.91;5082012;28;20028;-79
2021/12/14 10:07:58;;;;;;;39.97;20.33;;;;;;;7.26;95.81;102621.66;5090666;28;20024;-79
2021/12/14 10:10:24;;;;;;;41.38;19.23;;;;;;;7.30;95.59;102613.69;5072759;28;20465;-79
2021/12/14 10:12:53;;;;;;;44.90;19.88;;;;;;;7.28;95.39;102612.84;5083248;28;20036;-80
2021/12/14 10:15:28;;;;;;;45.05;22.08;;;;;;;7.34;95.33;102623.34;5087222;28;20054;-79
2021/12/14 10:17:59;;;;;;;41.08;20.45;;;;;;;7.40;95.39;102628.63;5083754;28;20074;-80
2021/12/14 10:20:39;;;;;;;39.20;19.77;;;;;;;7.41;94.52;102611.81;5085572;28;20122;-79
2021/12/14 10:23:06;;;;;;;36.10;19.92;;;;;;;7.57;94.57;102617.84;5084437;28;20126;-79
2021/12/14 10:25:32;;;;;;;42.05;20.05;;;;;;;7.68;94.20;102623.03;5088839;28;20488;-79
2021/12/14 10:27:58;;;;;;;37.05;19.20;;;;;;;7.79;93.81;102623.81;5087958;28;20036;-79
2021/12/14 10:30:32;;;;;;;37.28;19.83;;;;;;;7.87;93.38;102618.41;5073682;28;20070;-80
2021/12/14 10:33:00;;;;;;;38.72;20.83;;;;;;;7.97;92.76;102626.22;5081740;28;20469;-79
2021/12/14 10:35:34;;;;;;;36.65;19.85;;;;;;;8.02;92.55;102620.00;5079320;28;20051;-79
2021/12/14 10:38:20;;;;;;;41.13;20.08;;;;;;;7.95;91.97;102625.38;5093651;28;20024;-80
2021/12/14 10:43:34;;;;;;;36.83;19.95;;;;;;;7.83;92.60;102640.56;5090841;28;20042;-80
2021/12/14 10:46:13;;;;;;;40.10;20.75;;;;;;;7.85;93.26;102631.66;5089034;28;20028;-79
2021/12/14 10:48:43;;;;;;;37.80;19.98;;;;;;;7.88;93.31;102641.38;5084448;28;20017;-79
2021/12/14 10:51:11;;;;;;;40.25;21.13;;;;;;;7.86;93.02;102641.41;5089725;28;20036;-80
2021/12/14 10:53:41;;;;;;;40.28;19.77;;;;;;;7.84;92.73;102639.66;5090630;28;20028;-80
2021/12/14 10:56:15;;;;;;;37.65;18.52;;;;;;;7.85;92.44;102630.78;5088209;28;20028;-80
2021/12/14 10:58:43;;;;;;;39.88;20.95;;;;;;;7.83;92.76;102641.44;5089812;28;20440;-80
2021/12/14 11:01:15;;;;;;;37.63;19.48;;;;;;;7.86;92.88;102635.19;5088378;28;20039;-82
2021/12/14 11:03:46;;;;;;;38.85;20.58;;;;;;;7.83;92.44;102620.22;5090258;28;20101;-82
2021/12/14 11:06:16;;;;;;;40.03;21.00;;;;;;;7.83;92.54;102628.19;5086529;28;20039;-80
2021/12/14 11:08:56;;;;;;;41.00;21.13;;;;;;;7.79;93.01;102623.81;5089187;28;20035;-81
2021/12/14 11:11:35;;;;;;;39.95;20.85;;;;;;;7.77;93.26;102622.94;5092016;28;20036;-80
2021/12/14 11:14:05;;;;;;;40.58;20.92;;;;;;;7.81;93.47;102624.66;5088982;28;20067;-80
2021/12/14 11:19:41;;;;;;;44.47;22.63;;;;;;;7.96;92.98;102624.47;5086092;28;20117;-81
2021/12/14 11:22:14;;;;;;;39.92;20.80;;;;;;;7.98;92.73;102625.38;5088367;28;20396;-81
2021/12/14 11:24:43;;;;;;;43.17;21.77;;;;;;;7.99;92.67;102613.84;5085545;28;20044;-81
2021/12/14 11:27:22;;;;;;;43.22;22.08;;;;;;;8.10;92.68;102607.53;5076048;28;20024;-79
2021/12/14 11:30:09;;;;;;;39.88;21.35;;;;;;;8.15;92.50;102595.97;5067735;28;20497;-80
2021/12/14 11:32:34;;;;;;;43.90;22.08;;;;;;;8.37;91.84;102596.59;5076969;28;20028;-80
2021/12/14 11:35:01;;;;;;;41.65;22.35;;;;;;;8.48;90.77;102591.13;5087731;28;20024;-82
2021/12/14 11:37:33;;;;;;;45.08;22.60;;;;;;;8.58;90.22;102597.19;5069667;28;20501;-82
2021/12/14 11:40:01;;;;;;;44.90;22.08;;;;;;;8.63;89.79;102587.38;5087659;28;20024;-81
2021/12/14 11:42:27;;;;;;;45.05;21.77;;;;;;;8.58;89.76;102602.50;5083715;28;20125;-82
2021/12/14 11:45:20;;;;;;;39.10;21.05;;;;;;;8.51;90.70;102590.22;5082520;28;20469;-82
2021/12/14 11:47:54;;;;;;;41.58;21.17;;;;;;;8.57;90.95;102598.97;5086992;28;20028;-80
2021/12/14 11:50:33;;;;;;;39.33;20.90;;;;;;;8.57;90.70;102593.69;5088483;28;20067;-81
2021/12/14 11:53:11;;;;;;;41.08;21.48;;;;;;;8.55;90.33;102597.25;5075481;28;20024;-81
2021/12/14 11:55:43;;;;;;;40.42;20.92;;;;;;;8.51;90.72;102601.72;5084943;28;20064;-81